• Join FlightAware (Why Join?)
  • Login
  • US Flag 
 
11:29AM EST


 

Airport Tracker/Info


-or-


 

Live Flight TrackerFlight Track Log ✈ UAL4401 ✈ 22-Apr-2013 ✈ KIAH - KIAD

Flight Track Log - Related Links

Times and Time Zones

All times are in EDT time to prevent confusion due to time zone crossing. See the UAL4401 flight status page for this flight to view local times or setup timezone preferences in your user account.

Time Position Orientation Groundspeed Altitude Reporting Facility
EDT Latitude Longitude Course Direction KTS MPH feet Rate Location/Type
08:22PM 29.9614 -95.3411 97° East 146 168 800  Level Houston Center
08:23PM 29.9475 -95.3019 112° Southeast 197 227 2,200 1,620 Climbing Houston Center
08:24PM 29.9294 -95.2219 105° East 271 312 3,800 1,320 Climbing Houston Center
08:25PM 29.9194 -95.1364 98° East 274 315 5,000 1,680 Climbing Houston Center
08:26PM 29.8990 -94.6578 97° East  Level FlightAware Approximate
08:26PM 29.9297 -95.0403 83° East 282 325 7,600  Level Houston Center
08:27PM 29.8841 -94.5223 97° East  Level FlightAware Approximate
08:27PM 29.9356 -94.9511 86° East 302 348 9,600  Level Houston Center
08:28PM 29.9281 -94.8364 94° East 344 396 10,700 1,320 Climbing Houston Center
08:29PM 29.9103 -94.6928 98° East 376 433 12,600 1,620 Climbing Houston Center
08:30PM 29.8950 -94.5678 98° East 389 448 14,100 1,500 Climbing Houston Center
08:31PM 29.8778 -94.4425 99° East 395 455 15,800 1,500 Climbing Houston Center
08:32PM 29.8614 -94.3153 98° East 400 460 17,300 1,380 Climbing Houston Center
08:33PM 29.8589 -94.1869 91° East 403 464 18,700 1,380 Climbing Houston Center
08:34PM 29.8544 -94.0600 92° East 398 458 20,200 1,500 Climbing Houston Center
08:35PM 29.8653 -93.9308 84° East 405 466 21,800 1,800 Climbing Houston Center
08:36PM 29.8681 -93.7794 89° East 395 455 24,000 1,920 Climbing Houston Center
08:37PM 29.8531 -93.6533 98° East 398 458 25,800 1,620 Climbing Houston Center
08:38PM 29.8417 -93.5283 96° East 396 456 27,400 1,380 Climbing Houston Center
08:39PM 29.8300 -93.4050 96° East 391 450 28,700 1,200 Climbing Houston Center
08:40PM 29.8439 -93.2831 82° East 387 445 30,000 1,320 Climbing Houston Center
08:41PM 29.8717 -93.1381 78° East 388 447 31,500 1,200 Climbing Houston Center
08:42PM 29.8956 -93.0147 77° East 395 455 32,600 1,020 Climbing Houston Center
08:43PM 29.9206 -92.8914 77° East 398 458 33,700 900 Climbing Houston Center
08:44PM 29.9439 -92.7689 78° East 394 453 34,500 720 Climbing Houston Center
08:45PM 29.9694 -92.6436 77° East 401 461 35,300 660 Climbing Houston Center
08:46PM 29.9942 -92.5161 77° East 407 468 35,900 720 Climbing Houston Center
08:47PM 30.0231 -92.3633 78° East 408 470 36,800 480 Climbing Houston Center
08:48PM 30.0478 -92.2358 77° East 409 471 37,000 60 Climbing Houston Center
08:49PM 30.0736 -92.1017 77° East 425 489 37,000  Level Houston Center
08:50PM 30.1006 -91.9614 77° East 445 512 37,000  Level Houston Center
08:51PM 30.1275 -91.8167 78° East 458 527 37,000  Level Houston Center
08:53PM 30.1544 -91.6689 78° East 474 545 37,000  Level Houston Center
08:54PM 30.1897 -91.4828 78° East 492 566 37,000  Level Houston Center
08:55PM 30.2183 -91.3258 78° East 500 575 37,000  Level Houston Center
08:56PM 30.2514 -91.1675 76° East 504 580 37,000  Level Houston Center
08:57PM 30.3003 -91.0164 69° East 502 578 37,000  Level Houston Center
08:58PM 30.3467 -90.8650 70° East 500 575 37,000  Level Houston Center
08:59PM 30.3928 -90.7156 70° East 495 570 37,000  Level Houston Center
09:00PM 30.4378 -90.5675 71° East 490 564 37,000  Level Houston Center
09:01PM 30.4836 -90.4208 70° East 482 555 37,000  Level Houston Center
09:02PM 30.5556 -90.2561 63° Northeast 475 547 37,000  Level Houston Center
09:03PM 30.6164 -90.1192 63° Northeast 473 544 37,000  Level Houston Center
09:04PM 30.6767 -89.9831 63° Northeast 471 542 37,000  Level Houston Center
09:05PM 30.7375 -89.8450 63° Northeast 472 543 37,000  Level Houston Center
09:06PM 30.7978 -89.7078 63° Northeast 473 544 37,000  Level Houston Center
09:07PM 30.8581 -89.5703 63° Northeast 474 545 37,000  Level Houston Center
09:08PM 30.9175 -89.4339 63° Northeast 472 543 37,000  Level Houston Center
09:09PM 30.9786 -89.2964 63° Northeast 476 548 37,000  Level Houston Center
09:10PM 31.0358 -89.1583 64° Northeast 474 545 37,000  Level Houston Center
09:11PM 31.0947 -89.0231 63° Northeast 469 540 37,000  Level Houston Center
09:12PM 31.1611 -88.8703 63° Northeast 469 540 37,000  Level Houston Center
09:13PM 31.2189 -88.7353 63° Northeast 466 536 37,000  Level Houston Center
09:14PM 31.2775 -88.5981 63° Northeast 467 537 37,000  Level Houston Center
09:15PM 31.3367 -88.4619 63° Northeast 466 536 37,000  Level Houston Center
09:16PM 31.4194 -88.2750 63° Northeast 463 533 37,000  Level Atlanta Center
09:17PM 31.4694 -88.1533 64° Northeast 463 533 37,000  Level Atlanta Center
09:18PM 31.5281 -88.0172 63° Northeast 463 533 37,000  Level Atlanta Center
09:19PM 31.5869 -87.8783 64° Northeast 463 533 37,000  Level Atlanta Center
09:20PM 31.6431 -87.7442 64° Northeast 463 533 37,000  Level Atlanta Center
09:21PM 31.7014 -87.6050 64° Northeast 458 527 37,000  Level Atlanta Center
09:22PM 31.7597 -87.4656 64° Northeast 463 533 37,000  Level Atlanta Center
09:23PM 31.8181 -87.3139 66° East 463 533 37,000  Level Atlanta Center
09:24PM 31.8758 -87.1767 64° Northeast 458 527 37,000  Level Atlanta Center
09:25PM 31.9336 -87.0367 64° Northeast 458 527 37,000  Level Atlanta Center
09:26PM 31.9889 -86.8989 65° Northeast 458 527 37,000  Level Atlanta Center
09:27PM 32.0464 -86.7586 64° Northeast 458 527 37,000  Level Atlanta Center
09:28PM 32.1011 -86.6378 62° Northeast 458 527 37,000  Level Atlanta Center
09:29PM 32.1583 -86.4947 65° Northeast 463 533 37,000  Level Atlanta Center
09:30PM 32.2156 -86.3464 65° Northeast 463 533 37,000  Level Atlanta Center
09:31PM 32.2908 -86.2208 55° Northeast 457 526 37,000  Level Atlanta Center
09:32PM 32.3681 -86.0997 53° Northeast 450 518 37,000  Level Atlanta Center
09:33PM 32.4472 -85.9833 51° Northeast 456 525 37,000  Level Atlanta Center
09:34PM 32.5242 -85.8717 51° Northeast 473 544 37,000  Level Atlanta Center
09:35PM 32.6050 -85.7525 51° Northeast 473 544 37,000  Level Atlanta Center
09:36PM 32.6881 -85.6308 51° Northeast 468 539 37,000  Level Atlanta Center
09:37PM 32.7647 -85.5086 53° Northeast 468 539 37,000  Level Atlanta Center
09:38PM 32.8475 -85.3889 51° Northeast 468 539 37,000  Level Atlanta Center
09:39PM 32.9261 -85.2614 54° Northeast 468 539 37,000  Level Atlanta Center
09:40PM 33.0086 -85.1461 50° Northeast 462 532 37,000  Level Atlanta Center
09:41PM 33.0889 -85.0231 52° Northeast 462 532 37,000  Level Atlanta Center
09:42PM 33.1672 -84.9050 52° Northeast 462 532 37,000  Level Atlanta Center
09:43PM 33.2472 -84.7792 53° Northeast 467 537 37,000  Level Atlanta Center
09:44PM 33.3356 -84.6456 52° Northeast 467 537 37,000  Level Atlanta Center
09:45PM 33.4156 -84.5217 52° Northeast 467 537 37,000  Level Atlanta Center
09:46PM 33.4953 -84.3925 53° Northeast 467 537 37,000  Level Atlanta Center
09:47PM 33.5769 -84.2683 52° Northeast 473 544 37,000  Level Atlanta Center
09:48PM 33.6564 -84.1411 53° Northeast 474 545 37,000  Level Atlanta Center
09:49PM 33.7400 -84.0139 52° Northeast 474 545 37,000  Level Atlanta Center
09:50PM 33.8192 -83.8889 53° Northeast 481 554 37,000  Level Atlanta Center
09:51PM 33.9025 -83.7608 52° Northeast 481 554 37,000  Level Atlanta Center
09:52PM 33.9836 -83.6281 54° Northeast 487 560 37,000  Level Atlanta Center
09:53PM 34.0664 -83.5022 52° Northeast 482 555 37,000  Level Atlanta Center
09:54PM 34.1472 -83.3711 53° Northeast 482 555 37,000  Level Atlanta Center
09:55PM 34.2319 -83.2397 52° Northeast 487 560 37,000  Level Atlanta Center
09:56PM 34.3125 -83.1083 53° Northeast 487 560 37,000  Level Atlanta Center
09:57PM 34.3928 -82.9764 54° Northeast 482 555 37,000  Level Atlanta Center
09:58PM 34.4731 -82.8444 54° Northeast 482 555 37,000  Level Atlanta Center
09:59PM 34.5550 -82.7122 53° Northeast 482 555 37,000  Level Atlanta Center
10:01PM 34.6344 -82.5814 54° Northeast  Level FlightAware Approximate
10:01PM 34.7189 -82.4467 54° Northeast 488 562 37,000  Level Atlanta Center
10:02PM 34.8006 -82.3111 54° Northeast 495 570 37,000  Level Atlanta Center
10:03PM 34.8819 -82.1778 53° Northeast 495 570 37,000  Level Atlanta Center
10:04PM 34.9656 -82.0442 53° Northeast 490 564 37,000  Level Atlanta Center
10:05PM 35.0447 -81.9103 54° Northeast 490 564 37,000  Level Atlanta Center
10:06PM 35.1172 -81.7714 57° Northeast 490 564 37,000  Level Atlanta Center
10:07PM 35.1919 -81.6319 57° Northeast 490 564 37,000  Level Atlanta Center
10:08PM 35.2561 -81.5056 58° Northeast 490 564 37,000  Level Atlanta Center
10:09PM 35.3303 -81.3658 57° Northeast 490 564 37,000  Level Atlanta Center
10:10PM 35.4022 -81.2283 57° Northeast 490 564 37,000  Level Atlanta Center
10:11PM 35.4819 -81.0700 58° Northeast 490 564 37,000 -240 Level Atlanta Center
10:12PM 35.5325 -80.9150 68° East 481 554 36,600 -420 Descending Atlanta Center
10:13PM 35.5769 -80.7756 69° East 476 548 36,200 -600 Descending Atlanta Center
10:14PM 35.6289 -80.6178 68° East 487 560 35,500 -960 Descending Atlanta Center
10:15PM 35.6850 -80.4644 66° East 493 567 34,300 -780 Descending Atlanta Center
10:18PM 35.9150 -80.1417 49° Northeast 492 566 33,000 -420 Descending Washington Center
10:19PM 36.0114 -80.0242 45° Northeast 492 566 33,000  Level Washington Center
10:20PM 36.0997 -79.8878 51° Northeast 487 560 33,000  Level Washington Center
10:21PM 36.1778 -79.7453 56° Northeast 493 567 33,000  Level Washington Center
10:22PM 36.2578 -79.6053 55° Northeast 504 580 33,000  Level Washington Center
10:23PM 36.3397 -79.4597 55° Northeast 504 580 33,000 -180 Level Washington Center
10:24PM 36.4128 -79.3267 56° Northeast 504 580 32,700 -1,500 Descending Washington Center
10:25PM 36.5011 -79.1681 55° Northeast 509 586 30,000 -2,700 Descending Washington Center
10:26PM 36.5783 -79.0319 55° Northeast 495 570 27,300 -2,460 Descending Washington Center
10:27PM 36.6550 -78.8981 54° Northeast 482 555 25,100 -1,200 Descending Washington Center
10:28PM 36.7256 -78.7586 58° Northeast 477 549 25,000 -60 Descending Washington Center
10:29PM 36.7933 -78.6369 55° Northeast 472 543 25,000  Level Washington Center
10:30PM 36.8675 -78.5075 54° Northeast 472 543 25,000 -300 Level Washington Center
10:31PM 36.9497 -78.3883 49° Northeast 454 522 24,400 -1,020 Descending Washington Center
10:32PM 37.0769 -78.2967 30° Northeast 449 517 23,000 -1,200 Descending Washington Center
10:33PM 37.1853 -78.2119 32° Northeast 455 524 22,000 -540 Descending Washington Center
10:34PM 37.2911 -78.1319 31° Northeast 455 524 22,000  Level Washington Center
10:35PM 37.3994 -78.0492 31° Northeast 455 524 22,000  Level Washington Center
10:36PM 37.5094 -77.9664 31° Northeast 455 524 22,000  Level Washington Center
10:37PM 37.6153 -77.8831 32° Northeast 455 524 22,000 -600 Level Washington Center
10:38PM 37.7192 -77.8022 32° Northeast 449 517 20,800 -2,100 Descending Washington Center
10:39PM 37.8206 -77.7239 31° Northeast 436 502 17,900 -2,700 Descending Washington Center
10:40PM 37.9136 -77.6553 30° Northeast 421 484 15,500 -2,280 Descending Washington Center
10:41PM 38.0025 -77.5839 32° Northeast 396 456 13,400 -2,400 Descending Washington Center
10:42PM 38.0806 -77.5281 29° Northeast 377 434 10,800 -1,740 Descending Washington Center
10:43PM 38.1628 -77.4642 31° Northeast 358 412 10,000 -420 Descending Washington Center
10:44PM 38.2511 -77.4081 27° Northeast 352 405 10,000 -360 Level Washington Center
10:45PM 38.3308 -77.3917 North 310 357 9,300 -1,140 Descending Washington Center
10:46PM 38.4097 -77.4067 352° North 285 328 7,800 -1,260 Descending Washington Center
10:47PM 38.4844 -77.4244 349° North 279 321 6,800 -1,020 Descending Washington Center
10:48PM 38.5636 -77.4397 351° North 279 321 5,800 -1,140 Descending Washington Center
10:49PM 38.6500 -77.4667 346° North 265 305 4,500 -1,080 Descending Potomac TRACON
10:50PM 38.7167 -77.4667 360° North 258 297 3,600 -780 Descending Potomac TRACON
10:51PM 38.7833 -77.4667 360° North 238 274 3,000 -720 Descending Potomac TRACON
10:52PM 38.8500 -77.4667 360° North 199 229 2,200 -840 Descending Potomac TRACON